sensor_id;sensor_type;location;lat;lon;timestamp;pressure;altitude;pressure_sealevel;temperature;humidity
24620;BME280;12763;55.802;37.404;2023-07-28T00:02:09;97990.53;;;23.09;100.00
24620;BME280;12763;55.802;37.404;2023-07-28T00:04:35;97988.22;;;23.11;100.00
24620;BME280;12763;55.802;37.404;2023-07-28T00:07:03;97980.41;;;23.16;100.00
24620;BME280;12763;55.802;37.404;2023-07-28T00:09:29;97982.56;;;23.19;100.00
24620;BME280;12763;55.802;37.404;2023-07-28T00:11:58;97994.97;;;23.18;100.00
24620;BME280;12763;55.802;37.404;2023-07-28T00:14:25;98012.50;;;23.15;100.00
24620;BME280;12763;55.802;37.404;2023-07-28T00:16:53;98014.84;;;23.13;100.00
24620;BME280;12763;55.802;37.404;2023-07-28T00:19:20;98008.38;;;23.13;100.00
24620;BME280;12763;55.802;37.404;2023-07-28T00:21:50;98019.47;;;23.09;100.00
24620;BME280;12763;55.802;37.404;2023-07-28T00:24:18;98021.97;;;23.11;100.00
24620;BME280;12763;55.802;37.404;2023-07-28T00:26:44;98024.63;;;23.07;100.00
24620;BME280;12763;55.802;37.404;2023-07-28T00:29:11;98040.84;;;23.02;100.00
24620;BME280;12763;55.802;37.404;2023-07-28T00:31:37;98041.38;;;22.95;100.00
24620;BME280;12763;55.802;37.404;2023-07-28T00:34:04;98048.19;;;22.86;100.00
24620;BME280;12763;55.802;37.404;2023-07-28T00:36:30;98051.50;;;22.79;100.00
24620;BME280;12763;55.802;37.404;2023-07-28T00:38:57;98040.06;;;22.84;100.00
24620;BME280;12763;55.802;37.404;2023-07-28T00:41:24;98043.41;;;22.77;100.00
24620;BME280;12763;55.802;37.404;2023-07-28T00:43:50;98042.09;;;22.75;100.00
24620;BME280;12763;55.802;37.404;2023-07-28T00:46:17;98029.34;;;22.77;100.00
24620;BME280;12763;55.802;37.404;2023-07-28T00:48:44;98032.16;;;22.86;100.00
24620;BME280;12763;55.802;37.404;2023-07-28T00:51:11;98028.81;;;22.84;100.00
24620;BME280;12763;55.802;37.404;2023-07-28T00:53:38;98030.16;;;22.87;100.00
24620;BME280;12763;55.802;37.404;2023-07-28T00:56:05;98035.94;;;22.73;100.00
24620;BME280;12763;55.802;37.404;2023-07-28T00:58:32;98028.22;;;22.70;100.00
24620;BME280;12763;55.802;37.404;2023-07-28T01:00:59;98010.66;;;22.73;100.00
24620;BME280;12763;55.802;37.404;2023-07-28T01:03:25;98015.31;;;22.69;100.00
24620;BME280;12763;55.802;37.404;2023-07-28T01:06:13;98011.47;;;22.73;100.00
24620;BME280;12763;55.802;37.404;2023-07-28T01:11:56;98002.22;;;22.73;100.00
24620;BME280;12763;55.802;37.404;2023-07-28T01:14:24;98000.59;;;22.72;100.00
24620;BME280;12763;55.802;37.404;2023-07-28T01:16:50;98003.88;;;22.74;100.00
24620;BME280;12763;55.802;37.404;2023-07-28T01:19:17;97995.44;;;22.74;100.00
24620;BME280;12763;55.802;37.404;2023-07-28T01:21:47;97993.97;;;22.68;100.00
24620;BME280;12763;55.802;37.404;2023-07-28T01:26:54;97995.13;;;22.58;100.00
24620;BME280;12763;55.802;37.404;2023-07-28T01:29:21;97989.34;;;22.63;100.00
24620;BME280;12763;55.802;37.404;2023-07-28T01:31:47;97993.81;;;22.56;100.00
24620;BME280;12763;55.802;37.404;2023-07-28T01:34:14;97990.47;;;22.54;100.00
24620;BME280;12763;55.802;37.404;2023-07-28T01:36:40;97990.19;;;22.64;100.00
24620;BME280;12763;55.802;37.404;2023-07-28T01:39:06;97976.63;;;22.66;100.00
24620;BME280;12763;55.802;37.404;2023-07-28T01:41:32;97975.28;;;22.55;100.00
24620;BME280;12763;55.802;37.404;2023-07-28T01:43:58;97979.56;;;22.61;100.00
24620;BME280;12763;55.802;37.404;2023-07-28T01:46:24;97977.91;;;22.60;100.00
24620;BME280;12763;55.802;37.404;2023-07-28T01:48:50;97969.84;;;22.58;100.00
24620;BME280;12763;55.802;37.404;2023-07-28T01:51:16;97970.66;;;22.59;100.00
24620;BME280;12763;55.802;37.404;2023-07-28T01:53:42;97974.63;;;22.58;100.00
24620;BME280;12763;55.802;37.404;2023-07-28T01:56:09;97968.00;;;22.54;100.00
24620;BME280;12763;55.802;37.404;2023-07-28T01:58:35;97963.03;;;22.51;100.00
24620;BME280;12763;55.802;37.404;2023-07-28T02:01:01;97960.75;;;22.53;100.00
24620;BME280;12763;55.802;37.404;2023-07-28T02:03:27;97948.56;;;22.23;100.00
24620;BME280;12763;55.802;37.404;2023-07-28T02:05:54;97937.63;;;22.39;100.00
24620;BME280;12763;55.802;37.404;2023-07-28T02:08:20;97933.97;;;22.55;100.00
24620;BME280;12763;55.802;37.404;2023-07-28T02:10:46;97944.84;;;22.57;100.00
24620;BME280;12763;55.802;37.404;2023-07-28T02:13:12;97956.47;;;22.64;100.00
24620;BME280;12763;55.802;37.404;2023-07-28T02:15:39;97953.28;;;22.65;100.00
24620;BME280;12763;55.802;37.404;2023-07-28T02:18:05;97955.78;;;22.67;100.00
24620;BME280;12763;55.802;37.404;2023-07-28T02:20:32;97947.50;;;22.70;100.00
24620;BME280;12763;55.802;37.404;2023-07-28T02:22:59;97949.78;;;22.77;100.00
24620;BME280;12763;55.802;37.404;2023-07-28T02:25:25;97943.31;;;22.85;100.00
24620;BME280;12763;55.802;37.404;2023-07-28T02:27:50;97945.66;;;22.83;100.00
24620;BME280;12763;55.802;37.404;2023-07-28T02:30:17;97946.31;;;22.80;100.00
24620;BME280;12763;55.802;37.404;2023-07-28T02:32:42;97939.53;;;22.81;100.00
24620;BME280;12763;55.802;37.404;2023-07-28T02:35:08;97953.88;;;22.88;100.00
24620;BME280;12763;55.802;37.404;2023-07-28T02:37:36;97960.19;;;22.85;100.00
24620;BME280;12763;55.802;37.404;2023-07-28T02:40:02;97967.66;;;22.81;100.00
24620;BME280;12763;55.802;37.404;2023-07-28T02:42:31;97982.06;;;22.71;100.00
24620;BME280;12763;55.802;37.404;2023-07-28T02:45:00;97983.22;;;22.61;100.00
24620;BME280;12763;55.802;37.404;2023-07-28T02:47:26;97984.19;;;22.57;100.00
24620;BME280;12763;55.802;37.404;2023-07-28T02:49:52;97993.28;;;22.54;100.00
24620;BME280;12763;55.802;37.404;2023-07-28T02:52:18;98010.03;;;22.50;100.00
24620;BME280;12763;55.802;37.404;2023-07-28T02:54:43;98027.03;;;22.54;100.00
24620;BME280;12763;55.802;37.404;2023-07-28T02:57:09;98025.88;;;22.55;100.00
24620;BME280;12763;55.802;37.404;2023-07-28T02:59:37;98024.88;;;22.51;100.00
24620;BME280;12763;55.802;37.404;2023-07-28T03:02:04;98009.66;;;22.60;100.00
24620;BME280;12763;55.802;37.404;2023-07-28T03:04:30;98013.16;;;22.66;100.00
24620;BME280;12763;55.802;37.404;2023-07-28T03:07:29;98024.06;;;22.67;100.00
24620;BME280;12763;55.802;37.404;2023-07-28T03:10:00;97999.41;;;22.73;100.00
24620;BME280;12763;55.802;37.404;2023-07-28T03:12:29;97989.44;;;22.84;100.00
24620;BME280;12763;55.802;37.404;2023-07-28T03:14:55;97988.44;;;22.97;100.00
24620;BME280;12763;55.802;37.404;2023-07-28T03:17:20;97988.44;;;22.97;100.00
24620;BME280;12763;55.802;37.404;2023-07-28T03:19:46;97999.97;;;23.04;100.00
24620;BME280;12763;55.802;37.404;2023-07-28T03:22:12;98048.16;;;22.94;100.00
24620;BME280;12763;55.802;37.404;2023-07-28T03:24:38;98065.38;;;22.84;100.00
24620;BME280;12763;55.802;37.404;2023-07-28T03:27:04;98080.28;;;22.76;100.00
24620;BME280;12763;55.802;37.404;2023-07-28T03:29:30;98068.88;;;22.72;100.00
24620;BME280;12763;55.802;37.404;2023-07-28T03:31:56;98035.44;;;22.88;100.00
24620;BME280;12763;55.802;37.404;2023-07-28T03:34:22;98042.84;;;23.01;100.00
24620;BME280;12763;55.802;37.404;2023-07-28T03:36:49;98046.13;;;23.12;100.00
24620;BME280;12763;55.802;37.404;2023-07-28T03:39:15;98045.34;;;23.03;100.00
24620;BME280;12763;55.802;37.404;2023-07-28T03:41:45;98063.53;;;23.05;100.00
24620;BME280;12763;55.802;37.404;2023-07-28T03:44:11;98060.25;;;22.86;100.00
24620;BME280;12763;55.802;37.404;2023-07-28T03:46:37;98070.50;;;22.82;100.00
24620;BME280;12763;55.802;37.404;2023-07-28T03:49:03;98112.56;;;22.70;100.00
24620;BME280;12763;55.802;37.404;2023-07-28T03:51:29;98134.22;;;22.78;100.00
24620;BME280;12763;55.802;37.404;2023-07-28T03:53:55;98159.00;;;22.67;100.00
24620;BME280;12763;55.802;37.404;2023-07-28T03:56:21;98185.88;;;22.43;100.00
24620;BME280;12763;55.802;37.404;2023-07-28T03:58:47;98205.38;;;22.31;100.00
24620;BME280;12763;55.802;37.404;2023-07-28T04:01:13;98177.56;;;22.20;100.00
24620;BME280;12763;55.802;37.404;2023-07-28T04:03:39;98166.03;;;22.22;100.00
24620;BME280;12763;55.802;37.404;2023-07-28T04:06:10;98133.97;;;22.32;100.00
24620;BME280;12763;55.802;37.404;2023-07-28T04:08:37;98124.56;;;22.36;100.00
24620;BME280;12763;55.802;37.404;2023-07-28T04:11:03;98096.31;;;22.33;100.00
24620;BME280;12763;55.802;37.404;2023-07-28T04:13:29;98068.22;;;22.33;100.00
24620;BME280;12763;55.802;37.404;2023-07-28T04:15:54;98011.19;;;22.41;100.00
24620;BME280;12763;55.802;37.404;2023-07-28T04:18:22;97942.13;;;22.14;100.00
24620;BME280;12763;55.802;37.404;2023-07-28T04:20:49;97892.03;;;22.33;100.00
24620;BME280;12763;55.802;37.404;2023-07-28T04:23:14;97843.13;;;22.34;100.00
24620;BME280;12763;55.802;37.404;2023-07-28T04:25:40;97824.63;;;22.24;100.00
24620;BME280;12763;55.802;37.404;2023-07-28T04:28:06;97827.56;;;22.37;100.00
24620;BME280;12763;55.802;37.404;2023-07-28T04:30:32;97889.19;;;22.42;100.00
24620;BME280;12763;55.802;37.404;2023-07-28T04:32:58;97906.53;;;22.44;100.00
24620;BME280;12763;55.802;37.404;2023-07-28T04:35:31;97907.38;;;22.44;100.00
24620;BME280;12763;55.802;37.404;2023-07-28T04:38:29;97898.59;;;22.46;100.00
24620;BME280;12763;55.802;37.404;2023-07-28T04:40:57;97892.28;;;22.57;100.00
24620;BME280;12763;55.802;37.404;2023-07-28T04:43:38;97887.81;;;22.65;100.00
24620;BME280;12763;55.802;37.404;2023-07-28T04:46:04;97886.00;;;22.69;100.00
24620;BME280;12763;55.802;37.404;2023-07-28T04:48:32;97889.44;;;22.74;100.00
24620;BME280;12763;55.802;37.404;2023-07-28T04:51:00;97923.34;;;22.78;100.00
24620;BME280;12763;55.802;37.404;2023-07-28T04:53:29;97937.41;;;22.69;100.00
24620;BME280;12763;55.802;37.404;2023-07-28T04:56:09;97940.72;;;22.71;100.00
24620;BME280;12763;55.802;37.404;2023-07-28T04:58:35;97963.66;;;22.82;100.00
24620;BME280;12763;55.802;37.404;2023-07-28T05:01:02;97980.03;;;22.89;100.00
24620;BME280;12763;55.802;37.404;2023-07-28T05:03:29;97974.56;;;22.92;100.00
24620;BME280;12763;55.802;37.404;2023-07-28T05:05:59;97977.97;;;23.06;100.00
24620;BME280;12763;55.802;37.404;2023-07-28T05:08:24;97993.31;;;23.17;100.00
24620;BME280;12763;55.802;37.404;2023-07-28T05:10:52;97998.41;;;23.24;100.00
24620;BME280;12763;55.802;37.404;2023-07-28T05:13:18;97975.44;;;23.22;100.00
24620;BME280;12763;55.802;37.404;2023-07-28T05:15:52;97975.63;;;23.17;100.00
24620;BME280;12763;55.802;37.404;2023-07-28T05:18:35;97971.78;;;23.21;100.00
24620;BME280;12763;55.802;37.404;2023-07-28T05:21:24;97965.44;;;23.42;100.00
24620;BME280;12763;55.802;37.404;2023-07-28T05:23:50;97965.50;;;23.54;100.00
24620;BME280;12763;55.802;37.404;2023-07-28T05:26:16;97967.31;;;23.79;100.00
24620;BME280;12763;55.802;37.404;2023-07-28T05:28:42;97968.09;;;23.88;100.00
24620;BME280;12763;55.802;37.404;2023-07-28T05:31:08;97972.75;;;24.05;100.00
24620;BME280;12763;55.802;37.404;2023-07-28T05:33:34;97964.22;;;24.22;100.00
24620;BME280;12763;55.802;37.404;2023-07-28T05:36:03;97966.28;;;24.45;100.00
24620;BME280;12763;55.802;37.404;2023-07-28T05:38:29;97965.59;;;24.48;100.00
24620;BME280;12763;55.802;37.404;2023-07-28T05:40:59;97960.91;;;24.52;100.00
24620;BME280;12763;55.802;37.404;2023-07-28T05:43:27;97959.69;;;24.41;100.00
24620;BME280;12763;55.802;37.404;2023-07-28T05:45:57;97963.22;;;24.38;100.00
24620;BME280;12763;55.802;37.404;2023-07-28T05:48:24;97972.66;;;24.22;100.00
24620;BME280;12763;55.802;37.404;2023-07-28T05:50:49;97973.53;;;24.34;100.00
24620;BME280;12763;55.802;37.404;2023-07-28T05:53:17;97972.78;;;24.25;100.00
24620;BME280;12763;55.802;37.404;2023-07-28T05:55:43;97968.41;;;24.16;100.00
24620;BME280;12763;55.802;37.404;2023-07-28T05:58:09;97983.22;;;24.04;100.00
24620;BME280;12763;55.802;37.404;2023-07-28T06:00:39;97981.97;;;23.93;100.00
24620;BME280;12763;55.802;37.404;2023-07-28T06:03:10;97981.38;;;24.08;100.00
24620;BME280;12763;55.802;37.404;2023-07-28T06:06:00;97973.06;;;24.32;100.00
24620;BME280;12763;55.802;37.404;2023-07-28T06:08:26;97966.97;;;24.42;100.00
24620;BME280;12763;55.802;37.404;2023-07-28T06:10:52;97986.72;;;24.42;100.00
24620;BME280;12763;55.802;37.404;2023-07-28T06:13:18;97994.91;;;24.35;100.00
24620;BME280;12763;55.802;37.404;2023-07-28T06:15:44;98011.22;;;24.30;100.00
24620;BME280;12763;55.802;37.404;2023-07-28T06:18:10;98022.47;;;24.30;100.00
24620;BME280;12763;55.802;37.404;2023-07-28T06:20:36;98010.22;;;24.05;100.00
24620;BME280;12763;55.802;37.404;2023-07-28T06:23:02;98016.28;;;23.86;100.00
24620;BME280;12763;55.802;37.404;2023-07-28T06:25:27;97995.69;;;23.94;100.00
24620;BME280;12763;55.802;37.404;2023-07-28T06:27:53;97991.88;;;24.20;100.00
24620;BME280;12763;55.802;37.404;2023-07-28T06:30:20;97994.69;;;24.40;100.00
24620;BME280;12763;55.802;37.404;2023-07-28T06:32:46;97999.25;;;24.66;100.00
24620;BME280;12763;55.802;37.404;2023-07-28T06:35:12;98011.41;;;24.45;100.00
24620;BME280;12763;55.802;37.404;2023-07-28T06:37:38;98046.88;;;24.26;100.00
24620;BME280;12763;55.802;37.404;2023-07-28T06:40:05;98108.31;;;23.74;100.00
24620;BME280;12763;55.802;37.404;2023-07-28T06:42:36;98157.31;;;23.18;100.00
24620;BME280;12763;55.802;37.404;2023-07-28T06:45:03;98139.13;;;22.98;100.00
24620;BME280;12763;55.802;37.404;2023-07-28T06:47:31;98103.75;;;23.06;100.00
24620;BME280;12763;55.802;37.404;2023-07-28T06:49:57;98165.63;;;22.97;100.00
24620;BME280;12763;55.802;37.404;2023-07-28T06:52:23;98236.91;;;22.67;100.00
24620;BME280;12763;55.802;37.404;2023-07-28T06:54:49;98258.28;;;22.29;100.00
24620;BME280;12763;55.802;37.404;2023-07-28T06:57:15;98234.44;;;22.17;100.00
24620;BME280;12763;55.802;37.404;2023-07-28T06:59:42;98233.41;;;22.13;100.00
24620;BME280;12763;55.802;37.404;2023-07-28T07:02:08;98207.81;;;22.15;100.00
24620;BME280;12763;55.802;37.404;2023-07-28T07:04:35;98183.75;;;22.31;100.00
24620;BME280;12763;55.802;37.404;2023-07-28T07:07:01;98176.13;;;22.23;100.00
24620;BME280;12763;55.802;37.404;2023-07-28T07:09:28;98135.63;;;22.24;100.00
24620;BME280;12763;55.802;37.404;2023-07-28T07:11:54;98117.44;;;22.21;100.00
24620;BME280;12763;55.802;37.404;2023-07-28T07:14:20;98126.22;;;22.29;100.00
24620;BME280;12763;55.802;37.404;2023-07-28T07:16:48;98096.47;;;22.36;100.00
24620;BME280;12763;55.802;37.404;2023-07-28T07:19:14;98085.38;;;22.40;100.00
24620;BME280;12763;55.802;37.404;2023-07-28T07:21:41;98059.59;;;22.38;100.00
24620;BME280;12763;55.802;37.404;2023-07-28T07:24:07;98039.63;;;22.39;100.00
24620;BME280;12763;55.802;37.404;2023-07-28T07:26:35;98013.00;;;22.37;100.00
24620;BME280;12763;55.802;37.404;2023-07-28T07:29:01;98051.00;;;22.43;100.00
24620;BME280;12763;55.802;37.404;2023-07-28T07:31:28;98034.81;;;22.40;100.00
24620;BME280;12763;55.802;37.404;2023-07-28T07:33:54;98061.59;;;22.46;100.00
24620;BME280;12763;55.802;37.404;2023-07-28T07:36:20;98055.31;;;22.49;100.00
24620;BME280;12763;55.802;37.404;2023-07-28T07:38:46;98042.25;;;22.53;100.00
24620;BME280;12763;55.802;37.404;2023-07-28T07:41:13;98052.00;;;22.55;100.00
24620;BME280;12763;55.802;37.404;2023-07-28T07:43:41;98059.81;;;22.67;100.00
24620;BME280;12763;55.802;37.404;2023-07-28T07:46:08;98064.59;;;22.66;100.00
24620;BME280;12763;55.802;37.404;2023-07-28T07:48:34;98075.63;;;22.63;100.00
24620;BME280;12763;55.802;37.404;2023-07-28T07:51:00;98077.81;;;22.66;100.00
24620;BME280;12763;55.802;37.404;2023-07-28T07:53:26;98079.47;;;22.67;100.00
24620;BME280;12763;55.802;37.404;2023-07-28T07:55:52;98091.38;;;22.64;100.00
24620;BME280;12763;55.802;37.404;2023-07-28T07:58:18;98100.47;;;22.69;100.00
24620;BME280;12763;55.802;37.404;2023-07-28T08:00:43;98089.88;;;22.75;100.00
24620;BME280;12763;55.802;37.404;2023-07-28T08:03:10;98082.59;;;22.74;100.00
24620;BME280;12763;55.802;37.404;2023-07-28T08:05:36;98083.91;;;22.85;100.00
24620;BME280;12763;55.802;37.404;2023-07-28T08:08:02;98107.25;;;22.77;100.00
24620;BME280;12763;55.802;37.404;2023-07-28T08:10:28;98103.94;;;22.66;100.00
24620;BME280;12763;55.802;37.404;2023-07-28T08:12:55;98108.53;;;22.54;100.00
24620;BME280;12763;55.802;37.404;2023-07-28T08:15:21;98104.25;;;22.65;100.00
24620;BME280;12763;55.802;37.404;2023-07-28T08:17:47;98108.56;;;22.88;100.00
24620;BME280;12763;55.802;37.404;2023-07-28T08:20:13;98112.22;;;22.80;100.00
24620;BME280;12763;55.802;37.404;2023-07-28T08:22:39;98102.94;;;22.79;100.00
24620;BME280;12763;55.802;37.404;2023-07-28T08:25:05;98101.63;;;22.77;100.00
24620;BME280;12763;55.802;37.404;2023-07-28T08:27:31;98094.00;;;22.95;100.00
24620;BME280;12763;55.802;37.404;2023-07-28T08:29:57;98086.72;;;22.85;100.00
24620;BME280;12763;55.802;37.404;2023-07-28T08:32:23;98087.75;;;22.72;100.00
24620;BME280;12763;55.802;37.404;2023-07-28T08:34:48;98094.31;;;22.76;100.00
24620;BME280;12763;55.802;37.404;2023-07-28T08:37:14;98101.97;;;22.75;100.00
24620;BME280;12763;55.802;37.404;2023-07-28T08:39:40;98112.50;;;22.87;100.00
24620;BME280;12763;55.802;37.404;2023-07-28T08:42:06;98133.69;;;22.76;100.00
24620;BME280;12763;55.802;37.404;2023-07-28T08:44:33;98137.81;;;22.78;100.00
24620;BME280;12763;55.802;37.404;2023-07-28T08:47:01;98140.63;;;22.87;100.00
24620;BME280;12763;55.802;37.404;2023-07-28T08:49:27;98139.50;;;22.88;100.00
24620;BME280;12763;55.802;37.404;2023-07-28T08:51:58;98144.13;;;22.75;100.00
24620;BME280;12763;55.802;37.404;2023-07-28T08:54:24;98152.22;;;22.77;100.00
24620;BME280;12763;55.802;37.404;2023-07-28T08:56:50;98160.66;;;22.77;100.00
24620;BME280;12763;55.802;37.404;2023-07-28T08:59:27;98154.84;;;23.08;100.00
24620;BME280;12763;55.802;37.404;2023-07-28T09:01:55;98147.38;;;23.12;100.00
24620;BME280;12763;55.802;37.404;2023-07-28T09:04:22;98136.25;;;23.50;100.00
24620;BME280;12763;55.802;37.404;2023-07-28T09:06:48;98119.88;;;23.81;100.00
24620;BME280;12763;55.802;37.404;2023-07-28T09:09:16;98132.09;;;23.93;100.00
24620;BME280;12763;55.802;37.404;2023-07-28T09:11:47;98132.16;;;24.06;100.00
24620;BME280;12763;55.802;37.404;2023-07-28T09:14:15;98136.22;;;24.25;100.00
24620;BME280;12763;55.802;37.404;2023-07-28T09:16:47;98143.47;;;24.35;100.00
24620;BME280;12763;55.802;37.404;2023-07-28T09:19:13;98150.94;;;24.31;100.00
24620;BME280;12763;55.802;37.404;2023-07-28T09:21:43;98159.03;;;24.03;100.00
24620;BME280;12763;55.802;37.404;2023-07-28T09:24:13;98170.44;;;23.77;100.00
24620;BME280;12763;55.802;37.404;2023-07-28T09:26:44;98180.03;;;23.76;100.00
24620;BME280;12763;55.802;37.404;2023-07-28T09:29:19;98189.34;;;23.68;100.00
24620;BME280;12763;55.802;37.404;2023-07-28T09:31:49;98189.66;;;23.67;100.00
24620;BME280;12763;55.802;37.404;2023-07-28T09:34:26;98202.97;;;23.49;100.00
24620;BME280;12763;55.802;37.404;2023-07-28T09:36:56;98222.69;;;23.41;100.00
24620;BME280;12763;55.802;37.404;2023-07-28T09:39:22;98237.09;;;23.13;100.00
24620;BME280;12763;55.802;37.404;2023-07-28T09:41:48;98230.97;;;22.94;100.00
24620;BME280;12763;55.802;37.404;2023-07-28T09:44:15;98222.69;;;23.06;100.00
24620;BME280;12763;55.802;37.404;2023-07-28T09:49:21;98203.31;;;23.22;100.00
24620;BME280;12763;55.802;37.404;2023-07-28T09:51:49;98198.69;;;23.17;100.00
24620;BME280;12763;55.802;37.404;2023-07-28T09:54:25;98207.94;;;23.18;100.00
24620;BME280;12763;55.802;37.404;2023-07-28T09:56:56;98205.00;;;23.06;100.00
24620;BME280;12763;55.802;37.404;2023-07-28T09:59:30;98235.28;;;23.00;100.00
24620;BME280;12763;55.802;37.404;2023-07-28T10:02:01;98224.00;;;23.17;100.00
24620;BME280;12763;55.802;37.404;2023-07-28T10:04:29;98214.22;;;23.32;100.00
24620;BME280;12763;55.802;37.404;2023-07-28T10:06:55;98208.59;;;23.23;100.00
24620;BME280;12763;55.802;37.404;2023-07-28T10:09:27;98211.09;;;23.33;100.00
24620;BME280;12763;55.802;37.404;2023-07-28T10:11:54;98224.47;;;23.36;100.00
24620;BME280;12763;55.802;37.404;2023-07-28T10:14:29;98223.81;;;23.31;100.00
24620;BME280;12763;55.802;37.404;2023-07-28T10:16:58;98227.47;;;23.23;100.00
24620;BME280;12763;55.802;37.404;2023-07-28T10:19:28;98237.41;;;23.29;100.00
24620;BME280;12763;55.802;37.404;2023-07-28T10:22:02;98228.13;;;23.37;100.00
24620;BME280;12763;55.802;37.404;2023-07-28T10:24:50;98213.75;;;23.47;100.00
24620;BME280;12763;55.802;37.404;2023-07-28T10:27:38;98233.28;;;23.44;100.00
24620;BME280;12763;55.802;37.404;2023-07-28T10:30:10;98223.69;;;23.45;100.00
24620;BME280;12763;55.802;37.404;2023-07-28T10:32:41;98219.03;;;23.31;100.00
24620;BME280;12763;55.802;37.404;2023-07-28T10:35:22;98193.50;;;23.62;100.00
24620;BME280;12763;55.802;37.404;2023-07-28T10:37:48;98191.06;;;23.90;100.00
24620;BME280;12763;55.802;37.404;2023-07-28T10:40:34;98178.75;;;24.03;100.00
24620;BME280;12763;55.802;37.404;2023-07-28T10:43:02;98172.91;;;24.17;100.00
24620;BME280;12763;55.802;37.404;2023-07-28T10:45:30;98173.78;;;24.38;100.00
24620;BME280;12763;55.802;37.404;2023-07-28T10:47:57;98154.69;;;24.43;100.00
24620;BME280;12763;55.802;37.404;2023-07-28T10:50:29;98147.94;;;24.57;100.00
24620;BME280;12763;55.802;37.404;2023-07-28T10:52:56;98139.97;;;24.59;100.00
24620;BME280;12763;55.802;37.404;2023-07-28T10:55:24;98133.78;;;24.65;100.00
24620;BME280;12763;55.802;37.404;2023-07-28T10:57:52;98130.53;;;24.75;100.00
24620;BME280;12763;55.802;37.404;2023-07-28T11:00:21;98171.75;;;24.68;100.00
24620;BME280;12763;55.802;37.404;2023-07-28T11:02:53;98167.13;;;24.42;100.00
24620;BME280;12763;55.802;37.404;2023-07-28T11:07:48;98162.00;;;24.07;100.00
24620;BME280;12763;55.802;37.404;2023-07-28T11:10:14;98150.44;;;24.00;100.00
24620;BME280;12763;55.802;37.404;2023-07-28T11:12:41;98136.00;;;24.01;100.00
24620;BME280;12763;55.802;37.404;2023-07-28T11:15:12;98145.13;;;23.98;100.00
24620;BME280;12763;55.802;37.404;2023-07-28T11:17:44;98134.50;;;24.04;100.00
24620;BME280;12763;55.802;37.404;2023-07-28T11:22:41;98113.09;;;23.82;100.00
24620;BME280;12763;55.802;37.404;2023-07-28T11:25:08;98117.91;;;23.73;100.00
24620;BME280;12763;55.802;37.404;2023-07-28T11:27:38;98137.28;;;23.83;100.00
24620;BME280;12763;55.802;37.404;2023-07-28T11:30:07;98166.25;;;23.83;100.00
24620;BME280;12763;55.802;37.404;2023-07-28T11:32:37;98184.31;;;23.82;100.00
24620;BME280;12763;55.802;37.404;2023-07-28T11:35:07;98185.28;;;23.86;100.00
24620;BME280;12763;55.802;37.404;2023-07-28T11:37:36;98197.03;;;23.97;100.00
24620;BME280;12763;55.802;37.404;2023-07-28T11:40:03;98217.38;;;24.03;100.00
24620;BME280;12763;55.802;37.404;2023-07-28T11:42:39;98223.34;;;24.01;100.00
24620;BME280;12763;55.802;37.404;2023-07-28T11:45:07;98235.50;;;23.84;100.00
24620;BME280;12763;55.802;37.404;2023-07-28T11:47:33;98230.56;;;23.73;100.00
24620;BME280;12763;55.802;37.404;2023-07-28T11:50:00;98237.22;;;23.60;100.00
24620;BME280;12763;55.802;37.404;2023-07-28T11:52:32;98239.88;;;23.48;100.00
24620;BME280;12763;55.802;37.404;2023-07-28T11:55:02;98250.66;;;22.94;100.00
24620;BME280;12763;55.802;37.404;2023-07-28T11:57:31;98255.34;;;22.51;100.00
24620;BME280;12763;55.802;37.404;2023-07-28T12:00:01;98255.31;;;22.34;100.00
24620;BME280;12763;55.802;37.404;2023-07-28T12:02:32;98270.59;;;22.10;100.00
24620;BME280;12763;55.802;37.404;2023-07-28T12:04:59;98265.13;;;22.05;100.00
24620;BME280;12763;55.802;37.404;2023-07-28T12:07:30;98273.47;;;22.28;100.00
24620;BME280;12763;55.802;37.404;2023-07-28T12:09:56;98273.59;;;22.14;100.00
24620;BME280;12763;55.802;37.404;2023-07-28T12:12:26;98280.38;;;22.21;100.00
24620;BME280;12763;55.802;37.404;2023-07-28T12:14:58;98279.25;;;22.22;100.00
24620;BME280;12763;55.802;37.404;2023-07-28T12:17:32;98286.56;;;22.01;100.00
24620;BME280;12763;55.802;37.404;2023-07-28T12:19:59;98291.44;;;21.87;100.00
24620;BME280;12763;55.802;37.404;2023-07-28T12:22:27;98290.34;;;21.97;100.00
24620;BME280;12763;55.802;37.404;2023-07-28T12:24:54;98295.47;;;21.95;100.00
24620;BME280;12763;55.802;37.404;2023-07-28T12:27:20;98296.50;;;22.07;100.00
24620;BME280;12763;55.802;37.404;2023-07-28T12:29:50;98306.09;;;22.06;100.00
24620;BME280;12763;55.802;37.404;2023-07-28T12:32:17;98312.38;;;21.81;100.00
24620;BME280;12763;55.802;37.404;2023-07-28T12:34:43;98318.47;;;21.83;100.00
24620;BME280;12763;55.802;37.404;2023-07-28T12:37:09;98323.06;;;21.79;100.00
24620;BME280;12763;55.802;37.404;2023-07-28T12:39:38;98320.03;;;21.89;100.00
24620;BME280;12763;55.802;37.404;2023-07-28T12:42:06;98318.88;;;21.90;100.00
24620;BME280;12763;55.802;37.404;2023-07-28T12:44:32;98321.19;;;21.88;100.00
24620;BME280;12763;55.802;37.404;2023-07-28T12:46:58;98320.34;;;21.88;100.00
24620;BME280;12763;55.802;37.404;2023-07-28T12:49:24;98328.78;;;21.88;100.00
24620;BME280;12763;55.802;37.404;2023-07-28T12:51:50;98331.03;;;21.86;100.00
24620;BME280;12763;55.802;37.404;2023-07-28T12:54:15;98331.50;;;21.79;100.00
24620;BME280;12763;55.802;37.404;2023-07-28T12:56:42;98336.75;;;21.72;100.00
24620;BME280;12763;55.802;37.404;2023-07-28T12:59:08;98345.59;;;21.65;100.00